sensor_id;sensor_type;location;lat;lon;timestamp;pressure;altitude;pressure_sealevel;temperature;humidity
73624;BME280;61921;53.226;-1.296;2023-07-13T00:01:22;100071.54;;;15.91;84.46
73624;BME280;61921;53.226;-1.296;2023-07-13T00:03:47;100071.55;;;15.78;85.15
73624;BME280;61921;53.226;-1.296;2023-07-13T00:06:12;100071.60;;;15.82;85.24
73624;BME280;61921;53.226;-1.296;2023-07-13T00:08:38;100072.25;;;15.74;85.49
73624;BME280;61921;53.226;-1.296;2023-07-13T00:11:04;100073.02;;;15.71;85.36
73624;BME280;61921;53.226;-1.296;2023-07-13T00:13:30;100071.37;;;15.54;86.07
73624;BME280;61921;53.226;-1.296;2023-07-13T00:15:53;100072.92;;;15.46;86.50
73624;BME280;61921;53.226;-1.296;2023-07-13T00:18:20;100071.49;;;15.55;86.27
73624;BME280;61921;53.226;-1.296;2023-07-13T00:20:45;100070.32;;;15.48;86.30
73624;BME280;61921;53.226;-1.296;2023-07-13T00:23:10;100071.76;;;15.33;86.99
73624;BME280;61921;53.226;-1.296;2023-07-13T00:25:35;100067.90;;;15.30;87.32
73624;BME280;61921;53.226;-1.296;2023-07-13T00:28:01;100063.22;;;15.38;86.83
73624;BME280;61921;53.226;-1.296;2023-07-13T00:30:26;100063.90;;;15.42;86.70
73624;BME280;61921;53.226;-1.296;2023-07-13T00:32:51;100066.08;;;15.22;87.03
73624;BME280;61921;53.226;-1.296;2023-07-13T00:35:16;100066.19;;;15.30;87.21
73624;BME280;61921;53.226;-1.296;2023-07-13T00:37:42;100066.01;;;15.15;87.83
73624;BME280;61921;53.226;-1.296;2023-07-13T00:40:09;100065.58;;;15.20;87.91
73624;BME280;61921;53.226;-1.296;2023-07-13T00:42:32;100064.99;;;15.11;88.27
73624;BME280;61921;53.226;-1.296;2023-07-13T00:45:04;100061.07;;;15.17;88.00
73624;BME280;61921;53.226;-1.296;2023-07-13T00:47:23;100066.26;;;15.22;87.84
73624;BME280;61921;53.226;-1.296;2023-07-13T00:49:48;100068.20;;;15.28;87.57
73624;BME280;61921;53.226;-1.296;2023-07-13T00:52:14;100071.24;;;15.26;87.66
73624;BME280;61921;53.226;-1.296;2023-07-13T00:54:43;100073.81;;;15.24;87.92
73624;BME280;61921;53.226;-1.296;2023-07-13T00:57:07;100074.77;;;15.26;87.42
73624;BME280;61921;53.226;-1.296;2023-07-13T00:59:30;100077.47;;;15.14;87.86
73624;BME280;61921;53.226;-1.296;2023-07-13T01:01:54;100075.49;;;15.24;87.23
73624;BME280;61921;53.226;-1.296;2023-07-13T01:04:20;100077.17;;;15.24;87.35
73624;BME280;61921;53.226;-1.296;2023-07-13T01:06:46;100083.23;;;15.24;87.49
73624;BME280;61921;53.226;-1.296;2023-07-13T01:09:11;100083.04;;;15.22;87.53
73624;BME280;61921;53.226;-1.296;2023-07-13T01:11:36;100078.27;;;15.18;87.83
73624;BME280;61921;53.226;-1.296;2023-07-13T01:14:01;100079.50;;;15.20;88.00
73624;BME280;61921;53.226;-1.296;2023-07-13T01:16:29;100074.74;;;15.29;87.49
73624;BME280;61921;53.226;-1.296;2023-07-13T01:18:52;100073.69;;;15.36;86.97
73624;BME280;61921;53.226;-1.296;2023-07-13T01:21:17;100070.14;;;15.13;88.55
73624;BME280;61921;53.226;-1.296;2023-07-13T01:23:42;100070.24;;;15.27;88.13
73624;BME280;61921;53.226;-1.296;2023-07-13T01:26:07;100068.34;;;15.29;87.96
73624;BME280;61921;53.226;-1.296;2023-07-13T01:28:33;100069.95;;;15.31;88.38
73624;BME280;61921;53.226;-1.296;2023-07-13T01:30:59;100073.02;;;15.24;88.42
73624;BME280;61921;53.226;-1.296;2023-07-13T01:33:24;100075.90;;;15.21;88.75
73624;BME280;61921;53.226;-1.296;2023-07-13T01:35:48;100070.50;;;15.27;88.52
73624;BME280;61921;53.226;-1.296;2023-07-13T01:38:15;100072.02;;;15.26;88.64
73624;BME280;61921;53.226;-1.296;2023-07-13T01:40:39;100075.80;;;15.29;88.30
73624;BME280;61921;53.226;-1.296;2023-07-13T01:43:05;100074.68;;;15.25;88.28
73624;BME280;61921;53.226;-1.296;2023-07-13T01:45:31;100079.12;;;15.30;88.42
73624;BME280;61921;53.226;-1.296;2023-07-13T01:47:56;100081.66;;;15.46;87.77
73624;BME280;61921;53.226;-1.296;2023-07-13T01:50:21;100090.57;;;15.46;87.50
73624;BME280;61921;53.226;-1.296;2023-07-13T01:52:46;100092.81;;;15.32;88.16
73624;BME280;61921;53.226;-1.296;2023-07-13T01:55:12;100095.19;;;15.42;87.94
73624;BME280;61921;53.226;-1.296;2023-07-13T01:57:37;100094.78;;;15.42;87.86
73624;BME280;61921;53.226;-1.296;2023-07-13T02:00:05;100096.96;;;15.43;88.20
73624;BME280;61921;53.226;-1.296;2023-07-13T02:02:28;100098.22;;;15.51;87.77
73624;BME280;61921;53.226;-1.296;2023-07-13T02:04:54;100093.68;;;15.56;87.38
73624;BME280;61921;53.226;-1.296;2023-07-13T02:07:20;100092.78;;;15.51;87.40
73624;BME280;61921;53.226;-1.296;2023-07-13T02:09:45;100086.63;;;15.47;87.82
73624;BME280;61921;53.226;-1.296;2023-07-13T02:12:10;100077.09;;;15.46;88.01
73624;BME280;61921;53.226;-1.296;2023-07-13T02:14:36;100078.15;;;15.35;88.60
73624;BME280;61921;53.226;-1.296;2023-07-13T02:17:01;100078.97;;;15.38;88.81
73624;BME280;61921;53.226;-1.296;2023-07-13T02:19:27;100076.62;;;15.43;88.62
73624;BME280;61921;53.226;-1.296;2023-07-13T02:21:52;100079.28;;;15.53;87.77
73624;BME280;61921;53.226;-1.296;2023-07-13T02:24:17;100081.86;;;15.39;88.43
73624;BME280;61921;53.226;-1.296;2023-07-13T02:26:43;100084.08;;;15.38;88.37
73624;BME280;61921;53.226;-1.296;2023-07-13T02:29:08;100078.32;;;15.30;89.52
73624;BME280;61921;53.226;-1.296;2023-07-13T02:31:34;100079.07;;;15.37;88.68
73624;BME280;61921;53.226;-1.296;2023-07-13T02:33:59;100075.69;;;15.37;88.78
73624;BME280;61921;53.226;-1.296;2023-07-13T02:36:25;100069.53;;;15.51;88.56
73624;BME280;61921;53.226;-1.296;2023-07-13T02:38:50;100068.71;;;15.58;88.08
73624;BME280;61921;53.226;-1.296;2023-07-13T02:41:15;100065.55;;;15.46;88.72
73624;BME280;61921;53.226;-1.296;2023-07-13T02:43:41;100060.04;;;15.36;88.68
73624;BME280;61921;53.226;-1.296;2023-07-13T02:46:06;100064.95;;;15.51;88.67
73624;BME280;61921;53.226;-1.296;2023-07-13T02:48:31;100061.93;;;15.51;88.53
73624;BME280;61921;53.226;-1.296;2023-07-13T02:50:56;100060.55;;;15.59;88.02
73624;BME280;61921;53.226;-1.296;2023-07-13T02:53:22;100058.60;;;15.49;88.33
73624;BME280;61921;53.226;-1.296;2023-07-13T02:55:47;100061.09;;;15.51;88.42
73624;BME280;61921;53.226;-1.296;2023-07-13T02:58:13;100059.77;;;15.07;90.26
73624;BME280;61921;53.226;-1.296;2023-07-13T03:00:38;100058.36;;;15.42;89.05
73624;BME280;61921;53.226;-1.296;2023-07-13T03:03:03;100066.12;;;15.32;89.10
73624;BME280;61921;53.226;-1.296;2023-07-13T03:05:28;100066.84;;;15.23;89.60
73624;BME280;61921;53.226;-1.296;2023-07-13T03:07:53;100066.89;;;15.18;89.96
73624;BME280;61921;53.226;-1.296;2023-07-13T03:10:19;100067.98;;;15.29;89.08
73624;BME280;61921;53.226;-1.296;2023-07-13T03:12:44;100068.58;;;15.13;90.01
73624;BME280;61921;53.226;-1.296;2023-07-13T03:15:10;100067.02;;;15.02;90.27
73624;BME280;61921;53.226;-1.296;2023-07-13T03:17:35;100071.79;;;14.40;92.82
73624;BME280;61921;53.226;-1.296;2023-07-13T03:20:01;100074.80;;;14.43;93.93
73624;BME280;61921;53.226;-1.296;2023-07-13T03:22:26;100077.55;;;14.37;94.48
73624;BME280;61921;53.226;-1.296;2023-07-13T03:24:51;100078.21;;;14.08;96.54
73624;BME280;61921;53.226;-1.296;2023-07-13T03:27:17;100083.10;;;14.43;94.33
73624;BME280;61921;53.226;-1.296;2023-07-13T03:29:42;100080.45;;;14.36;94.83
73624;BME280;61921;53.226;-1.296;2023-07-13T03:32:08;100081.29;;;14.45;94.17
73624;BME280;61921;53.226;-1.296;2023-07-13T03:34:33;100075.63;;;14.40;94.62
73624;BME280;61921;53.226;-1.296;2023-07-13T03:36:59;100075.79;;;14.34;95.06
73624;BME280;61921;53.226;-1.296;2023-07-13T03:39:24;100071.13;;;14.00;97.12
73624;BME280;61921;53.226;-1.296;2023-07-13T03:41:49;100072.10;;;13.98;96.97
73624;BME280;61921;53.226;-1.296;2023-07-13T03:44:15;100070.92;;;14.08;96.57
73624;BME280;61921;53.226;-1.296;2023-07-13T03:46:40;100071.41;;;13.87;97.84
73624;BME280;61921;53.226;-1.296;2023-07-13T03:49:05;100071.96;;;13.92;97.29
73624;BME280;61921;53.226;-1.296;2023-07-13T03:51:31;100070.76;;;13.95;96.46
73624;BME280;61921;53.226;-1.296;2023-07-13T03:53:56;100067.72;;;14.10;95.85
73624;BME280;61921;53.226;-1.296;2023-07-13T03:56:22;100070.65;;;14.08;95.80
73624;BME280;61921;53.226;-1.296;2023-07-13T03:58:49;100069.22;;;14.23;95.29
73624;BME280;61921;53.226;-1.296;2023-07-13T04:01:13;100067.10;;;14.23;94.83
73624;BME280;61921;53.226;-1.296;2023-07-13T04:03:38;100068.58;;;14.09;94.81
73624;BME280;61921;53.226;-1.296;2023-07-13T04:06:06;100076.87;;;14.04;94.82
73624;BME280;61921;53.226;-1.296;2023-07-13T04:08:30;100081.63;;;13.93;96.15
73624;BME280;61921;53.226;-1.296;2023-07-13T04:10:54;100084.62;;;13.99;95.16
73624;BME280;61921;53.226;-1.296;2023-07-13T04:13:19;100088.78;;;13.81;95.97
73624;BME280;61921;53.226;-1.296;2023-07-13T04:15:44;100095.49;;;13.65;96.23
73624;BME280;61921;53.226;-1.296;2023-07-13T04:18:09;100099.00;;;13.59;97.52
73624;BME280;61921;53.226;-1.296;2023-07-13T04:20:35;100102.14;;;13.66;96.94
73624;BME280;61921;53.226;-1.296;2023-07-13T04:22:59;100106.50;;;13.93;95.12
73624;BME280;61921;53.226;-1.296;2023-07-13T04:25:25;100108.93;;;14.01;94.73
73624;BME280;61921;53.226;-1.296;2023-07-13T04:27:50;100113.93;;;13.96;95.47
73624;BME280;61921;53.226;-1.296;2023-07-13T04:30:15;100113.17;;;13.86;96.56
73624;BME280;61921;53.226;-1.296;2023-07-13T04:32:40;100106.79;;;13.92;97.11
73624;BME280;61921;53.226;-1.296;2023-07-13T04:35:07;100097.81;;;13.88;97.81
73624;BME280;61921;53.226;-1.296;2023-07-13T04:37:32;100104.85;;;14.06;96.55
73624;BME280;61921;53.226;-1.296;2023-07-13T04:39:57;100111.74;;;14.13;95.33
73624;BME280;61921;53.226;-1.296;2023-07-13T04:42:22;100115.02;;;14.20;95.43
73624;BME280;61921;53.226;-1.296;2023-07-13T04:44:48;100116.96;;;14.36;93.67
73624;BME280;61921;53.226;-1.296;2023-07-13T04:47:13;100121.56;;;14.44;93.26
73624;BME280;61921;53.226;-1.296;2023-07-13T04:49:39;100117.51;;;14.22;94.55
73624;BME280;61921;53.226;-1.296;2023-07-13T04:52:05;100125.75;;;14.47;93.88
73624;BME280;61921;53.226;-1.296;2023-07-13T04:54:29;100134.44;;;14.57;92.99
73624;BME280;61921;53.226;-1.296;2023-07-13T04:56:55;100134.68;;;14.32;94.04
73624;BME280;61921;53.226;-1.296;2023-07-13T04:59:21;100136.48;;;14.53;93.00
73624;BME280;61921;53.226;-1.296;2023-07-13T05:01:46;100142.10;;;14.67;92.21
73624;BME280;61921;53.226;-1.296;2023-07-13T05:04:11;100145.95;;;14.77;91.64
73624;BME280;61921;53.226;-1.296;2023-07-13T05:06:37;100148.75;;;14.81;91.08
73624;BME280;61921;53.226;-1.296;2023-07-13T05:09:02;100148.07;;;14.88;90.56
73624;BME280;61921;53.226;-1.296;2023-07-13T05:11:27;100147.93;;;14.91;90.23
73624;BME280;61921;53.226;-1.296;2023-07-13T05:13:53;100147.40;;;14.98;89.95
73624;BME280;61921;53.226;-1.296;2023-07-13T05:16:18;100150.18;;;14.91;90.08
73624;BME280;61921;53.226;-1.296;2023-07-13T05:18:43;100153.18;;;14.94;89.88
73624;BME280;61921;53.226;-1.296;2023-07-13T05:21:10;100152.14;;;14.99;89.53
73624;BME280;61921;53.226;-1.296;2023-07-13T05:23:34;100152.50;;;14.50;91.83
73624;BME280;61921;53.226;-1.296;2023-07-13T05:25:59;100154.63;;;14.74;91.07
73624;BME280;61921;53.226;-1.296;2023-07-13T05:28:25;100153.77;;;14.75;90.79
73624;BME280;61921;53.226;-1.296;2023-07-13T05:30:50;100153.46;;;14.57;91.93
73624;BME280;61921;53.226;-1.296;2023-07-13T05:33:15;100158.71;;;14.70;91.26
73624;BME280;61921;53.226;-1.296;2023-07-13T05:35:40;100160.43;;;14.64;92.05
73624;BME280;61921;53.226;-1.296;2023-07-13T05:38:05;100169.24;;;14.83;90.93
73624;BME280;61921;53.226;-1.296;2023-07-13T05:40:30;100169.27;;;14.70;91.61
73624;BME280;61921;53.226;-1.296;2023-07-13T05:42:56;100175.19;;;14.36;93.65
73624;BME280;61921;53.226;-1.296;2023-07-13T05:45:22;100180.01;;;14.47;93.61
73624;BME280;61921;53.226;-1.296;2023-07-13T05:47:48;100184.32;;;14.50;94.65
73624;BME280;61921;53.226;-1.296;2023-07-13T05:50:13;100185.42;;;14.71;93.12
73624;BME280;61921;53.226;-1.296;2023-07-13T05:52:38;100187.26;;;14.71;92.19
73624;BME280;61921;53.226;-1.296;2023-07-13T05:55:04;100190.18;;;14.11;95.73
73624;BME280;61921;53.226;-1.296;2023-07-13T05:57:29;100197.11;;;14.26;96.41
73624;BME280;61921;53.226;-1.296;2023-07-13T05:59:54;100200.95;;;14.21;97.27
73624;BME280;61921;53.226;-1.296;2023-07-13T06:02:19;100206.09;;;14.60;95.12
73624;BME280;61921;53.226;-1.296;2023-07-13T06:04:45;100210.41;;;14.61;94.76
73624;BME280;61921;53.226;-1.296;2023-07-13T06:07:10;100212.89;;;14.92;93.61
73624;BME280;61921;53.226;-1.296;2023-07-13T06:09:35;100213.23;;;15.07;92.37
73624;BME280;61921;53.226;-1.296;2023-07-13T06:12:00;100216.91;;;14.98;91.66
73624;BME280;61921;53.226;-1.296;2023-07-13T06:14:26;100220.35;;;15.07;92.01
73624;BME280;61921;53.226;-1.296;2023-07-13T06:16:51;100225.84;;;15.30;90.48
73624;BME280;61921;53.226;-1.296;2023-07-13T06:19:17;100231.45;;;15.45;89.84
73624;BME280;61921;53.226;-1.296;2023-07-13T06:21:42;100226.86;;;15.42;89.82
73624;BME280;61921;53.226;-1.296;2023-07-13T06:24:07;100230.85;;;15.45;88.87
73624;BME280;61921;53.226;-1.296;2023-07-13T06:26:33;100229.82;;;15.86;87.53
73624;BME280;61921;53.226;-1.296;2023-07-13T06:28:59;100230.86;;;15.86;87.40
73624;BME280;61921;53.226;-1.296;2023-07-13T06:31:24;100232.08;;;16.29;86.32
73624;BME280;61921;53.226;-1.296;2023-07-13T06:33:49;100236.53;;;16.40;84.62
73624;BME280;61921;53.226;-1.296;2023-07-13T06:36:15;100239.67;;;15.89;85.39
73624;BME280;61921;53.226;-1.296;2023-07-13T06:38:40;100239.07;;;16.06;85.01
73624;BME280;61921;53.226;-1.296;2023-07-13T06:41:07;100241.73;;;15.98;86.21
73624;BME280;61921;53.226;-1.296;2023-07-13T06:43:30;100244.78;;;16.31;85.47
73624;BME280;61921;53.226;-1.296;2023-07-13T06:45:56;100245.53;;;16.47;84.29
73624;BME280;61921;53.226;-1.296;2023-07-13T06:48:21;100245.45;;;16.57;84.09
73624;BME280;61921;53.226;-1.296;2023-07-13T06:50:48;100248.27;;;16.77;83.13
73624;BME280;61921;53.226;-1.296;2023-07-13T06:53:12;100248.89;;;16.78;81.84
73624;BME280;61921;53.226;-1.296;2023-07-13T06:55:37;100246.38;;;16.97;82.13
73624;BME280;61921;53.226;-1.296;2023-07-13T06:58:02;100249.69;;;17.09;81.92
73624;BME280;61921;53.226;-1.296;2023-07-13T07:00:27;100250.39;;;17.18;82.21
73624;BME280;61921;53.226;-1.296;2023-07-13T07:02:52;100251.17;;;17.53;81.11
73624;BME280;61921;53.226;-1.296;2023-07-13T07:05:18;100252.03;;;17.69;78.44
73624;BME280;61921;53.226;-1.296;2023-07-13T07:07:43;100254.24;;;17.60;77.61
73624;BME280;61921;53.226;-1.296;2023-07-13T07:10:08;100258.20;;;17.76;78.60
73624;BME280;61921;53.226;-1.296;2023-07-13T07:12:33;100258.28;;;17.87;77.24
73624;BME280;61921;53.226;-1.296;2023-07-13T07:14:59;100259.71;;;18.12;76.49
73624;BME280;61921;53.226;-1.296;2023-07-13T07:17:24;100256.66;;;18.43;75.73
73624;BME280;61921;53.226;-1.296;2023-07-13T07:19:49;100256.25;;;18.47;74.45
73624;BME280;61921;53.226;-1.296;2023-07-13T07:22:14;100258.00;;;18.03;75.91
73624;BME280;61921;53.226;-1.296;2023-07-13T07:24:39;100259.41;;;18.54;74.06
73624;BME280;61921;53.226;-1.296;2023-07-13T07:27:05;100260.62;;;19.40;70.35
73624;BME280;61921;53.226;-1.296;2023-07-13T07:29:29;100261.13;;;20.84;65.35
73624;BME280;61921;53.226;-1.296;2023-07-13T07:31:55;100265.02;;;21.77;61.88
73624;BME280;61921;53.226;-1.296;2023-07-13T07:34:20;100269.56;;;21.85;58.54
73624;BME280;61921;53.226;-1.296;2023-07-13T07:36:45;100272.55;;;21.43;59.95
73624;BME280;61921;53.226;-1.296;2023-07-13T07:39:10;100278.14;;;20.41;62.98
73624;BME280;61921;53.226;-1.296;2023-07-13T07:41:35;100280.57;;;20.96;62.85
73624;BME280;61921;53.226;-1.296;2023-07-13T07:44:00;100281.63;;;21.79;59.59
73624;BME280;61921;53.226;-1.296;2023-07-13T07:46:25;100279.58;;;21.72;60.45
73624;BME280;61921;53.226;-1.296;2023-07-13T07:48:50;100282.98;;;20.82;59.40
73624;BME280;61921;53.226;-1.296;2023-07-13T07:51:16;100282.68;;;20.16;61.01
73624;BME280;61921;53.226;-1.296;2023-07-13T07:53:41;100285.28;;;20.83;60.46
73624;BME280;61921;53.226;-1.296;2023-07-13T07:56:06;100283.26;;;20.51;62.34
73624;BME280;61921;53.226;-1.296;2023-07-13T07:58:31;100287.46;;;20.59;63.18
73624;BME280;61921;53.226;-1.296;2023-07-13T08:01:02;100289.12;;;20.54;62.91
73624;BME280;61921;53.226;-1.296;2023-07-13T08:03:21;100290.16;;;19.49;63.34
73624;BME280;61921;53.226;-1.296;2023-07-13T08:05:47;100290.39;;;20.43;62.36
73624;BME280;61921;53.226;-1.296;2023-07-13T08:08:11;100294.52;;;21.11;56.94
73624;BME280;61921;53.226;-1.296;2023-07-13T08:10:36;100291.42;;;21.41;55.95
73624;BME280;61921;53.226;-1.296;2023-07-13T08:13:01;100289.19;;;22.23;52.71
73624;BME280;61921;53.226;-1.296;2023-07-13T08:15:27;100289.58;;;22.93;52.20
73624;BME280;61921;53.226;-1.296;2023-07-13T08:17:52;100288.73;;;22.70;54.70
73624;BME280;61921;53.226;-1.296;2023-07-13T08:20:17;100286.50;;;22.02;54.07
73624;BME280;61921;53.226;-1.296;2023-07-13T08:22:43;100292.53;;;22.41;51.90
73624;BME280;61921;53.226;-1.296;2023-07-13T08:25:08;100290.96;;;22.08;52.53
73624;BME280;61921;53.226;-1.296;2023-07-13T08:27:33;100292.89;;;22.07;51.57
73624;BME280;61921;53.226;-1.296;2023-07-13T08:29:58;100293.21;;;21.99;53.78
73624;BME280;61921;53.226;-1.296;2023-07-13T08:32:23;100288.61;;;21.58;54.06
73624;BME280;61921;53.226;-1.296;2023-07-13T08:34:48;100293.16;;;22.44;52.80
73624;BME280;61921;53.226;-1.296;2023-07-13T08:37:13;100294.51;;;22.74;51.21
73624;BME280;61921;53.226;-1.296;2023-07-13T08:39:38;100298.28;;;23.06;50.10
73624;BME280;61921;53.226;-1.296;2023-07-13T08:42:07;100296.00;;;22.61;50.01
73624;BME280;61921;53.226;-1.296;2023-07-13T08:44:35;100291.54;;;21.55;52.26
73624;BME280;61921;53.226;-1.296;2023-07-13T08:46:54;100296.21;;;21.88;53.50
73624;BME280;61921;53.226;-1.296;2023-07-13T08:49:21;100295.16;;;22.34;51.17
73624;BME280;61921;53.226;-1.296;2023-07-13T08:51:45;100295.78;;;21.66;52.02
73624;BME280;61921;53.226;-1.296;2023-07-13T08:54:16;100291.74;;;21.21;53.19
73624;BME280;61921;53.226;-1.296;2023-07-13T08:56:33;100291.69;;;21.38;54.23
73624;BME280;61921;53.226;-1.296;2023-07-13T08:59:02;100292.82;;;21.96;51.45
73624;BME280;61921;53.226;-1.296;2023-07-13T09:01:28;100288.77;;;21.73;51.32
73624;BME280;61921;53.226;-1.296;2023-07-13T09:03:55;100289.93;;;22.83;49.75
73624;BME280;61921;53.226;-1.296;2023-07-13T09:06:14;100293.36;;;22.56;50.13
73624;BME280;61921;53.226;-1.296;2023-07-13T09:08:48;100289.27;;;21.44;51.99
73624;BME280;61921;53.226;-1.296;2023-07-13T09:11:12;100294.61;;;20.96;52.94
73624;BME280;61921;53.226;-1.296;2023-07-13T09:13:33;100300.66;;;20.72;53.05
73624;BME280;61921;53.226;-1.296;2023-07-13T09:15:54;100296.68;;;21.51;51.83
73624;BME280;61921;53.226;-1.296;2023-07-13T09:18:25;100294.83;;;21.54;52.57
73624;BME280;61921;53.226;-1.296;2023-07-13T09:20:48;100297.41;;;21.45;51.89
73624;BME280;61921;53.226;-1.296;2023-07-13T09:23:14;100297.34;;;21.11;51.88
73624;BME280;61921;53.226;-1.296;2023-07-13T09:25:36;100301.57;;;21.68;51.76
73624;BME280;61921;53.226;-1.296;2023-07-13T09:28:05;100300.67;;;21.98;50.83
73624;BME280;61921;53.226;-1.296;2023-07-13T09:30:33;100295.52;;;21.20;52.09
73624;BME280;61921;53.226;-1.296;2023-07-13T09:32:52;100295.67;;;21.48;51.40
73624;BME280;61921;53.226;-1.296;2023-07-13T09:35:19;100300.08;;;22.34;49.87
73624;BME280;61921;53.226;-1.296;2023-07-13T09:37:40;100298.22;;;22.08;49.52
73624;BME280;61921;53.226;-1.296;2023-07-13T09:40:09;100303.16;;;22.38;48.01
73624;BME280;61921;53.226;-1.296;2023-07-13T09:42:30;100300.77;;;22.47;47.94
73624;BME280;61921;53.226;-1.296;2023-07-13T09:44:57;100298.02;;;22.58;48.25
73624;BME280;61921;53.226;-1.296;2023-07-13T09:47:22;100295.92;;;22.84;47.29
73624;BME280;61921;53.226;-1.296;2023-07-13T09:49:45;100299.27;;;22.99;46.51
73624;BME280;61921;53.226;-1.296;2023-07-13T09:52:12;100300.85;;;22.59;48.80
73624;BME280;61921;53.226;-1.296;2023-07-13T09:54:36;100298.33;;;22.16;48.87
73624;BME280;61921;53.226;-1.296;2023-07-13T09:57:01;100301.34;;;21.76;50.93
73624;BME280;61921;53.226;-1.296;2023-07-13T09:59:29;100305.20;;;21.82;50.27
73624;BME280;61921;53.226;-1.296;2023-07-13T10:01:50;100309.11;;;22.00;50.40
73624;BME280;61921;53.226;-1.296;2023-07-13T10:04:18;100307.77;;;22.39;48.90
73624;BME280;61921;53.226;-1.296;2023-07-13T10:06:40;100311.77;;;23.24;49.15
73624;BME280;61921;53.226;-1.296;2023-07-13T10:09:07;100312.69;;;23.72;45.91
73624;BME280;61921;53.226;-1.296;2023-07-13T10:11:31;100306.38;;;23.35;47.48
73624;BME280;61921;53.226;-1.296;2023-07-13T10:13:58;100309.46;;;23.64;46.27
73624;BME280;61921;53.226;-1.296;2023-07-13T10:16:22;100301.83;;;23.76;46.66
73624;BME280;61921;53.226;-1.296;2023-07-13T10:18:49;100307.96;;;23.52;46.18
73624;BME280;61921;53.226;-1.296;2023-07-13T10:21:16;100316.29;;;23.56;45.72
73624;BME280;61921;53.226;-1.296;2023-07-13T10:23:38;100313.87;;;23.01;46.04
73624;BME280;61921;53.226;-1.296;2023-07-13T10:26:04;100319.07;;;23.22;47.47
73624;BME280;61921;53.226;-1.296;2023-07-13T10:28:31;100316.85;;;23.43;46.41
73624;BME280;61921;53.226;-1.296;2023-07-13T10:30:56;100319.89;;;23.30;46.75
73624;BME280;61921;53.226;-1.296;2023-07-13T10:33:20;100322.80;;;23.19;46.29
73624;BME280;61921;53.226;-1.296;2023-07-13T10:35:46;100316.14;;;23.53;46.47
73624;BME280;61921;53.226;-1.296;2023-07-13T10:38:13;100308.96;;;24.09;46.40
73624;BME280;61921;53.226;-1.296;2023-07-13T10:40:38;100317.48;;;23.61;46.10
73624;BME280;61921;53.226;-1.296;2023-07-13T10:43:04;100319.50;;;23.48;46.32
73624;BME280;61921;53.226;-1.296;2023-07-13T10:45:29;100315.09;;;23.44;45.06
73624;BME280;61921;53.226;-1.296;2023-07-13T10:47:54;100318.46;;;23.48;46.25
73624;BME280;61921;53.226;-1.296;2023-07-13T10:50:22;100319.40;;;23.34;46.05
73624;BME280;61921;53.226;-1.296;2023-07-13T10:52:46;100317.08;;;23.37;46.91
73624;BME280;61921;53.226;-1.296;2023-07-13T10:57:41;100313.88;;;24.02;45.67
73624;BME280;61921;53.226;-1.296;2023-07-13T11:00:14;100312.73;;;24.15;46.50
73624;BME280;61921;53.226;-1.296;2023-07-13T11:02:27;100310.47;;;24.68;45.09
73624;BME280;61921;53.226;-1.296;2023-07-13T11:04:53;100306.32;;;24.42;43.61
73624;BME280;61921;53.226;-1.296;2023-07-13T11:07:21;100307.96;;;24.08;45.28
73624;BME280;61921;53.226;-1.296;2023-07-13T11:09:41;100311.42;;;24.25;45.75
73624;BME280;61921;53.226;-1.296;2023-07-13T11:12:10;100313.21;;;24.44;44.36
73624;BME280;61921;53.226;-1.296;2023-07-13T11:14:35;100315.15;;;24.52;43.74
73624;BME280;61921;53.226;-1.296;2023-07-13T11:16:57;100313.70;;;24.51;44.33
73624;BME280;61921;53.226;-1.296;2023-07-13T11:19:27;100311.92;;;24.99;42.95
73624;BME280;61921;53.226;-1.296;2023-07-13T11:22:02;100320.76;;;24.39;42.70
73624;BME280;61921;53.226;-1.296;2023-07-13T11:24:17;100312.24;;;24.08;44.45
73624;BME280;61921;53.226;-1.296;2023-07-13T11:26:43;100311.07;;;24.35;43.37
73624;BME280;61921;53.226;-1.296;2023-07-13T11:29:12;100306.68;;;24.20;43.24
73624;BME280;61921;53.226;-1.296;2023-07-13T11:31:33;100308.97;;;24.05;43.62
73624;BME280;61921;53.226;-1.296;2023-07-13T11:33:59;100306.83;;;24.38;43.97
73624;BME280;61921;53.226;-1.296;2023-07-13T11:36:30;100308.82;;;24.60;44.38
73624;BME280;61921;53.226;-1.296;2023-07-13T11:38:58;100307.65;;;25.20;43.80
73624;BME280;61921;53.226;-1.296;2023-07-13T11:41:18;100306.89;;;24.79;44.11
73624;BME280;61921;53.226;-1.296;2023-07-13T11:43:41;100296.59;;;25.24;43.32
73624;BME280;61921;53.226;-1.296;2023-07-13T11:46:15;100298.69;;;24.85;43.83
73624;BME280;61921;53.226;-1.296;2023-07-13T11:48:34;100300.86;;;25.36;43.08
73624;BME280;61921;53.226;-1.296;2023-07-13T11:51:01;100297.69;;;25.46;42.91
73624;BME280;61921;53.226;-1.296;2023-07-13T11:53:27;100297.05;;;25.58;41.02
73624;BME280;61921;53.226;-1.296;2023-07-13T11:55:51;100292.16;;;25.50;40.50
73624;BME280;61921;53.226;-1.296;2023-07-13T11:58:22;100292.57;;;25.16;42.53
73624;BME280;61921;53.226;-1.296;2023-07-13T12:00:42;100288.93;;;25.51;41.67
73624;BME280;61921;53.226;-1.296;2023-07-13T12:03:10;100288.12;;;25.54;41.43
73624;BME280;61921;53.226;-1.296;2023-07-13T12:05:33;100284.71;;;25.19;40.65
73624;BME280;61921;53.226;-1.296;2023-07-13T12:08:08;100281.74;;;25.25;42.54
73624;BME280;61921;53.226;-1.296;2023-07-13T12:10:27;100282.93;;;24.27;42.43
73624;BME280;61921;53.226;-1.296;2023-07-13T12:12:53;100284.65;;;24.35;44.39
73624;BME280;61921;53.226;-1.296;2023-07-13T12:15:17;100286.74;;;24.10;44.31
73624;BME280;61921;53.226;-1.296;2023-07-13T12:17:42;100292.12;;;24.24;44.77
73624;BME280;61921;53.226;-1.296;2023-07-13T12:20:20;100289.78;;;23.60;44.85
73624;BME280;61921;53.226;-1.296;2023-07-13T12:22:34;100290.78;;;23.55;44.60
73624;BME280;61921;53.226;-1.296;2023-07-13T12:25:00;100282.86;;;24.21;44.96
73624;BME280;61921;53.226;-1.296;2023-07-13T12:27:26;100282.33;;;24.25;44.73
73624;BME280;61921;53.226;-1.296;2023-07-13T12:29:50;100281.00;;;24.09;44.37
73624;BME280;61921;53.226;-1.296;2023-07-13T12:32:17;100276.57;;;23.82;44.87